ADDS METAR Data INFO
IDs: Format: Raw Decoded Include TAF

Data at: 2331 UTC 15 Dec 2017

KEDE 152325Z AUTO 31010G15KT 10SM CLR 07/00 A2997 RMK AO2 T00690000
KEDE 152305Z AUTO 31009KT 10SM CLR 07/01 A2996 RMK AO2 T00710005
KEDE 152245Z AUTO 31010G16KT 10SM CLR 07/01 A2996 RMK AO2 T00740006
KEDE 152225Z AUTO 31008KT 10SM CLR 08/01 A2993 RMK AO2 T00800013
KEDE 152205Z AUTO 30008KT 10SM CLR 09/01 A2992 RMK AO2 T00850011
KEDE 152145Z AUTO 30010G16KT 10SM CLR 09/01 A2992 RMK AO2 T00900011
KEDE 152125Z AUTO 31012G17KT 10SM CLR 09/02 A2992 RMK AO2 T00940023
KEDE 152105Z AUTO 32012G17KT 10SM CLR 10/03 A2989 RMK AO2 T01040031
KEDE 152045Z AUTO 30009KT 10SM CLR 12/04 A2988 RMK AO2 T01210040
KEDE 152025Z AUTO 27009G16KT 10SM CLR 13/03 A2987 RMK AO2 T01270034
KEDE 152005Z AUTO 27008G15KT 10SM CLR 13/03 A2986 RMK AO2 T01320034
KEDE 151945Z AUTO 27011KT 10SM CLR 14/04 A2988 RMK AO2 T01400036
KEDE 151925Z AUTO 27011G15KT 10SM CLR 14/04 A2986 RMK AO2 T01390036
KEDE 151905Z AUTO 26012G16KT 10SM CLR 15/03 A2986 RMK AO2 T01450032
KEDE 151845Z AUTO 25010KT 10SM CLR 15/04 A2986 RMK AO2 T01500039
KEDE 151825Z AUTO 24011G14KT 10SM CLR 15/05 A2985 RMK AO2 T01480052
KEDE 151805Z AUTO 23007KT 10SM CLR 14/07 A2987 RMK AO2 T01360065
KEDE 151745Z AUTO 22006KT 10SM CLR 14/07 A2987 RMK AO2 T01350072
KEDE 151725Z AUTO 21004KT 10SM CLR 14/08 A2989 RMK AO2 T01360080
KEDE 151705Z AUTO 19005KT 10SM CLR 14/08 A2991 RMK AO2 T01380080
KEDE 151645Z AUTO 18006KT 10SM CLR 14/08 A2991 RMK AO2 T01380082
KEDE 151625Z AUTO 17005KT 10SM CLR 13/08 A2993 RMK AO2 T01300077
KEDE 151605Z AUTO 15003KT 10SM CLR 12/07 A2996 RMK AO2 T01230074
KEDE 151545Z AUTO 10005KT 10SM CLR 11/07 A2996 RMK AO2 T01130069
KEDE 151525Z AUTO 12006KT 10SM CLR 11/07 A2997 RMK AO2 T01100065
KEDE 151505Z AUTO 12005KT 10SM CLR 10/06 A2998 RMK AO2 T01040057
KEDE 151445Z AUTO 00000KT 10SM CLR 09/05 A2999 RMK AO2 T00900045
KEDE 151425Z AUTO 08003KT 10SM CLR 07/03 A2999 RMK AO2 T00720032
KEDE 151405Z AUTO 06004KT 10SM CLR 06/03 A2999 RMK AO2 T00630025
KEDE 151345Z AUTO 07004KT 10SM CLR 05/02 A2999 RMK AO2 T00500016
KEDE 151325Z AUTO 03004KT 10SM SCT110 05/01 A2999 RMK AO2 T00460013
KEDE 151305Z AUTO 00000KT 10SM BKN110 04/01 A3000 RMK AO2 T00430011
KEDE 151245Z AUTO 06006KT 10SM SCT110 04/01 A3001 RMK AO2 T00400007
KEDE 151225Z AUTO 05006KT 10SM SCT120 04/01 A3001 RMK AO2 T00370005
KEDE 151205Z AUTO 04006KT 10SM CLR 03/00 A3001 RMK AO2 T00310001
KEDE 151145Z AUTO 02003KT 10SM CLR 03/00 A3002 RMK AO2 T00260000
KEDE 151125Z AUTO 02004KT 10SM CLR 02/00 A3002 RMK AO2 T00241001
KEDE 151105Z AUTO 02004KT 10SM CLR 03/00 A3002 RMK AO2 T00251002
KEDE 151045Z AUTO 04005KT 10SM CLR 03/00 A3002 RMK AO2 T00271002
KEDE 151025Z AUTO 03005KT 10SM CLR 03/00 A3002 RMK AO2 T00261003
KEDE 151005Z AUTO 02004KT 10SM CLR 03/00 A3003 RMK AO2 T00251004
KEDE 150945Z AUTO 03006KT 10SM CLR 03/00 A3003 RMK AO2 T00281004
KEDE 150925Z AUTO 04003KT 10SM CLR 03/00 A3003 RMK AO2 T00251005
KEDE 150905Z AUTO 02005KT 10SM CLR 02/00 A3004 RMK AO2 T00211005
KEDE 150845Z AUTO 03004KT 10SM CLR 02/M01 A3004 RMK AO2 T00211006
KEDE 150825Z AUTO 03004KT 10SM CLR 02/M01 A3004 RMK AO2 T00211006
KEDE 150805Z AUTO 02005KT 10SM CLR 03/00 A3005 RMK AO2 T00251005
KEDE 150745Z AUTO 03004KT 10SM CLR 03/M01 A3005 RMK AO2 T00261006
KEDE 150725Z AUTO 02005KT 10SM CLR 03/M01 A3005 RMK AO2 T00301006
KEDE 150705Z AUTO 02004KT 10SM CLR 03/M01 A3004 RMK AO2 T00301007
KEDE 150645Z AUTO 03005KT 10SM CLR 03/M01 A3004 RMK AO2 T00291009
KEDE 150625Z AUTO 03005KT 10SM CLR 03/M01 A3004 RMK AO2 T00301010
KEDE 150605Z AUTO 04004KT 10SM CLR 03/M01 A3004 RMK AO2 T00341010
KEDE 150545Z AUTO 04006KT 10SM CLR 04/M01 A3004 RMK AO2 T00351010
KEDE 150525Z AUTO 04006KT 10SM CLR 04/M01 A3004 RMK AO2 T00371008
KEDE 150505Z AUTO 03006KT 10SM CLR 04/M01 A3005 RMK AO2 T00361006
KEDE 150445Z AUTO 05006KT 10SM CLR 04/00 A3006 RMK AO2 T00371005
KEDE 150405Z AUTO 05006KT 10SM CLR 04/00 A3006 RMK AO2 T00401002
KEDE 150345Z AUTO 05006KT 10SM CLR 04/00 A3007 RMK AO2 T00431001
KEDE 150325Z AUTO 04005KT 10SM CLR 04/00 A3007 RMK AO2 T00410000
KEDE 150305Z AUTO 03005KT 10SM CLR 04/00 A3006 RMK AO2 T00430000
KEDE 150245Z AUTO 03004KT 10SM CLR 05/00 A3005 RMK AO2 T00460001
KEDE 150225Z AUTO 04005KT 10SM CLR 05/00 A3005 RMK AO2 T00500003
KEDE 150205Z AUTO 05006KT 10SM CLR 05/01 A3004 RMK AO2 T00520005
KEDE 150145Z AUTO 06005KT 10SM CLR 06/01 A3004 RMK AO2 T00560005
KEDE 150125Z AUTO 06005KT 10SM CLR 06/00 A3003 RMK AO2 T00570003
KEDE 150105Z AUTO 06005KT 10SM CLR 06/00 A3002 RMK AO2 T00610003
KEDE 150045Z AUTO 06005KT 10SM CLR 06/00 A3002 RMK AO2 T00610002
KEDE 150025Z AUTO 06005KT 10SM CLR 07/00 A3001 RMK AO2 T00670003
KEDE 150005Z AUTO 07006KT 10SM CLR 07/01 A3000 RMK AO2 T00700005
KEDE 142345Z AUTO 07006KT 10SM CLR 07/01 A2999 RMK AO2 T00720006
KEDE 142325Z AUTO 08006KT 10SM CLR 07/01 A2998 RMK AO2 T00740006
KEDE 142305Z AUTO 08008G14KT 10SM CLR 06/02 A2997 RMK AO2 T00640016
KEDE 142245Z AUTO 00000KT 10SM CLR 07/02 A2995 RMK AO2 T00730020
KEDE 142225Z AUTO 00000KT 10SM CLR 08/02 A2994 RMK AO2 T00820022
KEDE 142205Z AUTO 00000KT 10SM CLR 09/02 A2992 RMK AO2 T00920017
KEDE 142145Z AUTO 00000KT 10SM CLR 11/00 A2991 RMK AO2 T01110000
KEDE 142125Z AUTO 34005KT 10SM CLR 11/M01 A2990 RMK AO2 T01141010
KEDE 142105Z AUTO 33004KT 10SM CLR 13/M02 A2989 RMK AO2 T01281016
KEDE 142045Z AUTO 31006KT 10SM CLR 14/M02 A2988 RMK AO2 T01351018
KEDE 142025Z AUTO 33005KT 10SM CLR 14/M02 A2987 RMK AO2 T01361021
KEDE 142005Z AUTO 34010KT 10SM CLR 14/M02 A2986 RMK AO2 T01401019
KEDE 141945Z AUTO 32010KT 10SM CLR 14/M02 A2986 RMK AO2 T01401021
KEDE 141925Z AUTO 30009KT 10SM CLR 14/M02 A2985 RMK AO2 T01421021
KEDE 141905Z AUTO 31010KT 10SM CLR 14/M02 A2984 RMK AO2 T01431025
KEDE 141845Z AUTO 27008KT 10SM CLR 14/M02 A2984 RMK AO2 T01431017
KEDE 141825Z AUTO 28007KT 10SM CLR 14/M01 A2984 RMK AO2 T01441011
KEDE 141805Z AUTO 28008G16KT 260V320 10SM CLR 14/M02 A2984 RMK AO2 T01431017
KEDE 141745Z AUTO 29008KT 10SM CLR 14/M02 A2983 RMK AO2 T01401019
KEDE 141725Z AUTO 28010KT 10SM CLR 14/M01 A2984 RMK AO2 T01361013
KEDE 141705Z AUTO 28006KT 10SM CLR 13/M02 A2983 RMK AO2 T01291019
KEDE 141645Z AUTO 27006KT 10SM CLR 12/M01 A2984 RMK AO2 T01241014
KEDE 141625Z AUTO 27008KT 10SM CLR 11/M01 A2984 RMK AO2 T01131011
KEDE 141605Z AUTO 26009KT 10SM CLR 11/M01 A2984 RMK AO2 T01111011
KEDE 141545Z AUTO 28008KT 10SM CLR 10/M01 A2985 RMK AO2 T01021011
KEDE 141525Z AUTO 27008KT 10SM CLR 10/M01 A2984 RMK AO2 T00961015
KEDE 141505Z AUTO 26009KT 10SM CLR 09/M02 A2983 RMK AO2 T00901016
KEDE 141445Z AUTO 26009G16KT 10SM CLR 08/M02 A2983 RMK AO2 T00801023
KEDE 141425Z AUTO 26010KT 10SM CLR 08/M02 A2982 RMK AO2 T00751025
KEDE 141405Z AUTO 26010G15KT 10SM CLR 07/M02 A2981 RMK AO2 T00671025
KEDE 141345Z AUTO 25009KT 10SM CLR 06/M02 A2980 RMK AO2 T00631023
KEDE 141325Z AUTO 24013KT 10SM CLR 06/M02 A2979 RMK AO2 T00601023
KEDE 141305Z AUTO 25011G15KT 10SM CLR 06/M02 A2978 RMK AO2 T00571022
KEDE 141245Z AUTO 25011G16KT 10SM CLR 06/M02 A2978 RMK AO2 T00551025
KEDE 141225Z AUTO 24010KT 10SM CLR 06/M02 A2977 RMK AO2 T00551025
KEDE 141205Z AUTO 25013G18KT 10SM CLR 06/M03 A2976 RMK AO2 T00551027
KEDE 141145Z AUTO 24012G17KT 10SM CLR 06/M03 A2975 RMK AO2 T00551026